Time;durP1;ratioP1;P1;durP2;ratioP2;P2;SDS_P1;SDS_P2;PMS_P1;PMS_P2;Temp;Humidity;BMP_temperature;BMP_pressure;BME280_temperature;BME280_humidity;BME280_pressure;Samples;Min_cycle;Max_cycle;Signal;HPM_P1;HPM_P2
2021/12/27 00:00:42;;;;;;;13.45;10.23;;;8.20;72.20;;;;;;5046215;28;20095;-50
2021/12/27 00:03:12;;;;;;;14.10;10.25;;;8.20;72.20;;;;;;5042542;28;20416;-46
2021/12/27 00:05:39;;;;;;;16.95;10.48;;;8.30;72.30;;;;;;5034506;28;20045;-46
2021/12/27 00:08:06;;;;;;;14.32;9.90;;;8.30;72.20;;;;;;5030542;28;20110;-48
2021/12/27 00:10:32;;;;;;;14.50;10.23;;;8.30;72.30;;;;;;5048283;28;20058;-47
2021/12/27 00:12:59;;;;;;;15.90;11.07;;;8.30;72.30;;;;;;5042071;28;20110;-46
2021/12/27 00:15:26;;;;;;;14.60;10.20;;;8.30;72.40;;;;;;5042077;28;20045;-48
2021/12/27 00:17:53;;;;;;;17.17;10.68;;;8.30;72.50;;;;;;5026494;28;20673;-48
2021/12/27 00:20:20;;;;;;;14.32;9.98;;;8.30;72.50;;;;;;5050100;28;20041;-49
2021/12/27 00:22:51;;;;;;;14.15;9.70;;;8.30;72.50;;;;;;5041977;28;20037;-48
2021/12/27 00:25:18;;;;;;;16.98;10.20;;;8.30;72.50;;;;;;5027952;28;20042;-46
2021/12/27 00:27:46;;;;;;;13.88;9.27;;;8.30;72.50;;;;;;5047261;28;20044;-48
2021/12/27 00:30:15;;;;;;;14.52;9.48;;;8.30;72.50;;;;;;5019878;28;20493;-47
2021/12/27 00:32:43;;;;;;;16.60;10.60;;;8.30;72.50;;;;;;5030298;28;20512;-46
2021/12/27 00:35:12;;;;;;;14.30;10.43;;;8.30;72.60;;;;;;5027254;28;20088;-47
2021/12/27 00:37:40;;;;;;;15.25;10.82;;;8.30;72.60;;;;;;5024878;28;20037;-47
2021/12/27 00:40:08;;;;;;;14.32;9.95;;;8.30;72.60;;;;;;5041571;28;20060;-49
2021/12/27 00:42:36;;;;;;;12.82;8.48;;;8.30;72.50;;;;;;5032160;28;20037;-50
2021/12/27 00:45:03;;;;;;;12.18;10.10;;;8.30;72.50;;;;;;5032118;28;20452;-47
2021/12/27 00:47:30;;;;;;;16.08;10.30;;;8.30;72.60;;;;;;5039712;28;20496;-47
2021/12/27 00:49:57;;;;;;;14.48;9.63;;;8.30;72.60;;;;;;5040844;28;20048;-49
2021/12/27 00:52:24;;;;;;;13.20;9.32;;;8.30;72.70;;;;;;5050244;28;20061;-49
2021/12/27 00:54:51;;;;;;;16.60;10.10;;;8.30;72.90;;;;;;5036482;28;20107;-45
2021/12/27 00:57:18;;;;;;;15.57;10.13;;;8.30;73.00;;;;;;5046315;28;20044;-47
2021/12/27 00:59:44;;;;;;;10.70;8.82;;;8.30;73.10;;;;;;5036048;28;20038;-46
2021/12/27 01:02:11;;;;;;;13.68;9.93;;;8.30;73.10;;;;;;5029765;28;20481;-48
2021/12/27 01:04:38;;;;;;;12.85;9.63;;;8.30;73.10;;;;;;5026895;28;20057;-46
2021/12/27 01:07:05;;;;;;;13.95;10.45;;;8.30;73.20;;;;;;5029636;28;20452;-46
2021/12/27 01:09:49;;;;;;;12.02;9.02;;;8.40;73.50;;;;;;5029694;28;20072;-47
2021/12/27 01:12:34;;;;;;;13.48;9.77;;;8.30;73.50;;;;;;5030025;28;20103;-47
2021/12/27 01:15:10;;;;;;;13.57;9.55;;;8.30;73.50;;;;;;5034812;28;20099;-49
2021/12/27 01:17:39;;;;;;;12.90;8.75;;;8.40;73.60;;;;;;5041855;28;20045;-47
2021/12/27 01:20:12;;;;;;;11.38;7.53;;;8.30;73.50;;;;;;5049325;28;20099;-50
2021/12/27 01:22:39;;;;;;;12.43;8.48;;;8.40;73.70;;;;;;5041775;28;20096;-47
2021/12/27 01:25:08;;;;;;;10.45;8.68;;;8.40;73.60;;;;;;5050885;28;20041;-50
2021/12/27 01:27:35;;;;;;;10.77;8.57;;;8.40;73.70;;;;;;5045245;28;20455;-49
2021/12/27 01:30:06;;;;;;;12.80;9.70;;;8.30;73.60;;;;;;5053478;28;20073;-48
2021/12/27 01:32:39;;;;;;;11.80;8.37;;;8.40;73.70;;;;;;5034724;28;20096;-49
2021/12/27 01:35:06;;;;;;;10.65;8.35;;;8.30;73.60;;;;;;5040174;28;20280;-48
2021/12/27 01:37:34;;;;;;;10.88;8.60;;;8.30;73.60;;;;;;5033585;28;20045;-48
2021/12/27 01:40:02;;;;;;;13.18;8.45;;;8.30;73.70;;;;;;5019421;28;20100;-48
2021/12/27 01:42:29;;;;;;;11.85;8.23;;;8.40;73.80;;;;;;5034234;28;20038;-49
2021/12/27 01:44:59;;;;;;;10.77;7.90;;;8.30;73.90;;;;;;5044162;28;20041;-49
2021/12/27 01:47:28;;;;;;;11.90;8.48;;;8.30;73.90;;;;;;5033623;28;20041;-47
2021/12/27 01:49:55;;;;;;;10.68;8.13;;;8.30;73.90;;;;;;5033002;28;20095;-48
2021/12/27 01:52:22;;;;;;;12.65;7.75;;;8.30;73.90;;;;;;5034250;28;20052;-47
2021/12/27 01:54:50;;;;;;;9.85;8.10;;;8.30;74.00;;;;;;5026555;28;20049;-49
2021/12/27 01:57:18;;;;;;;10.13;7.90;;;8.30;74.00;;;;;;5053120;28;20063;-48
2021/12/27 01:59:45;;;;;;;13.82;8.90;;;8.30;74.00;;;;;;5042801;28;20103;-50
2021/12/27 02:02:31;;;;;;;11.27;8.65;;;8.40;74.10;;;;;;5044985;28;20128;-49
2021/12/27 02:04:58;;;;;;;13.20;8.70;;;8.30;74.00;;;;;;5033923;28;20086;-46
2021/12/27 02:07:25;;;;;;;11.63;8.07;;;8.30;74.00;;;;;;5033280;28;20072;-48
2021/12/27 02:10:13;;;;;;;9.70;7.30;;;8.40;74.10;;;;;;5028159;28;20492;-46
2021/12/27 02:12:40;;;;;;;10.98;7.53;;;8.40;74.10;;;;;;5046407;28;20111;-49
2021/12/27 02:15:09;;;;;;;11.43;8.52;;;8.40;74.00;;;;;;5037980;28;20041;-47
2021/12/27 02:17:38;;;;;;;9.07;8.18;;;8.40;74.10;;;;;;5028595;28;20045;-48
2021/12/27 02:20:15;;;;;;;12.10;8.68;;;8.40;74.10;;;;;;5052199;28;20041;-45
2021/12/27 02:22:44;;;;;;;10.70;7.95;;;8.40;74.20;;;;;;5044435;28;20730;-45
2021/12/27 02:25:12;;;;;;;9.95;8.05;;;8.40;74.10;;;;;;5012912;28;20099;-47
2021/12/27 02:27:41;;;;;;;11.88;8.55;;;8.40;74.20;;;;;;5047205;28;20087;-48
2021/12/27 02:30:10;;;;;;;10.80;7.80;;;8.40;74.20;;;;;;5042795;28;20049;-47
2021/12/27 02:32:49;;;;;;;11.35;8.63;;;8.40;74.30;;;;;;5044052;28;20095;-47
2021/12/27 02:35:30;;;;;;;10.63;8.02;;;8.40;74.50;;;;;;5051911;28;20095;-47
2021/12/27 02:38:00;;;;;;;11.30;6.90;;;8.40;74.50;;;;;;5040712;28;20071;-45
2021/12/27 02:40:31;;;;;;;13.77;8.27;;;8.40;74.30;;;;;;5043232;28;20098;-47
2021/12/27 02:43:01;;;;;;;11.67;8.00;;;8.50;75.00;;;;;;5051855;28;20500;-47
2021/12/27 02:45:33;;;;;;;10.15;7.65;;;8.50;74.30;;;;;;5036424;28;20299;-45
2021/12/27 02:48:00;;;;;;;10.65;6.95;;;8.50;74.30;;;;;;5030083;28;20041;-46
2021/12/27 02:50:28;;;;;;;10.25;7.80;;;8.50;74.40;;;;;;5051849;28;20045;-45
2021/12/27 02:52:55;;;;;;;13.32;8.73;;;8.50;74.40;;;;;;5043818;28;20044;-45
2021/12/27 02:55:23;;;;;;;10.70;8.13;;;8.50;74.40;;;;;;5042428;28;20041;-49
2021/12/27 02:57:51;;;;;;;11.57;7.88;;;8.50;74.40;;;;;;5049596;28;20074;-45
2021/12/27 03:00:45;;;;;;;11.65;8.10;;;8.50;74.40;;;;;;5049033;28;20135;-48
2021/12/27 03:03:14;;;;;;;11.38;7.85;;;8.50;74.40;;;;;;5050525;28;20381;-49
2021/12/27 03:05:42;;;;;;;9.98;7.90;;;8.50;74.30;;;;;;5031450;28;20500;-49
2021/12/27 03:08:13;;;;;;;10.88;7.35;;;8.50;74.30;;;;;;5033581;28;20047;-47
2021/12/27 03:10:48;;;;;;;10.13;7.20;;;8.50;74.40;;;;;;5043080;28;20522;-48
2021/12/27 03:13:17;;;;;;;11.82;7.82;;;8.50;74.50;;;;;;5051898;28;20075;-50
2021/12/27 03:15:45;;;;;;;9.95;6.50;;;8.50;74.30;;;;;;5038284;28;20053;-50
2021/12/27 03:18:12;;;;;;;9.00;7.35;;;8.50;74.40;;;;;;5051382;28;20044;-49
2021/12/27 03:20:40;;;;;;;9.38;7.00;;;8.50;74.40;;;;;;5041035;28;20075;-49
2021/12/27 03:23:07;;;;;;;9.10;7.03;;;8.50;74.40;;;;;;5034536;28;20424;-49
2021/12/27 03:25:34;;;;;;;10.43;8.30;;;8.60;74.40;;;;;;5035492;28;20029;-50
2021/12/27 03:28:01;;;;;;;10.10;7.38;;;8.50;74.30;;;;;;5037147;28;20038;-48
2021/12/27 03:30:28;;;;;;;10.18;7.40;;;8.50;74.40;;;;;;5046567;28;20052;-50
2021/12/27 03:32:55;;;;;;;8.90;7.05;;;8.60;74.50;;;;;;5050098;28;20040;-45
2021/12/27 03:35:34;;;;;;;10.82;7.30;;;8.60;74.50;;;;;;5042366;28;20048;-50
2021/12/27 03:38:04;;;;;;;11.23;7.57;;;8.60;74.50;;;;;;5031616;28;20037;-45
2021/12/27 03:40:31;;;;;;;10.43;7.22;;;8.60;74.50;;;;;;5030900;28;20067;-49
2021/12/27 03:42:58;;;;;;;9.57;7.97;;;8.60;74.50;;;;;;5029336;28;20040;-45
2021/12/27 03:45:31;;;;;;;11.15;7.43;;;8.70;74.50;;;;;;5043069;28;20033;-49
2021/12/27 03:47:59;;;;;;;9.80;7.75;;;8.70;74.70;;;;;;5042329;28;20049;-45
2021/12/27 03:50:26;;;;;;;10.48;7.00;;;8.60;74.50;;;;;;5050691;28;20181;-49
2021/12/27 03:52:55;;;;;;;10.52;7.38;;;8.60;74.50;;;;;;5040817;28;20044;-46
2021/12/27 03:55:24;;;;;;;10.80;6.95;;;8.70;74.60;;;;;;5043567;28;20043;-49
2021/12/27 03:58:24;;;;;;;10.25;7.30;;;8.70;74.70;;;;;;5033879;22;20037;-78
2021/12/27 04:01:15;;;;;;;8.27;6.82;;;8.70;74.60;;;;;;5022968;28;20148;-78
2021/12/27 04:03:33;;;;;;;8.32;6.75;;;8.70;74.60;;;;;;5008797;28;20092;-78
2021/12/27 04:06:00;;;;;;;9.73;7.53;;;8.90;74.60;;;;;;5001204;28;20042;-78
2021/12/27 04:08:27;;;;;;;9.85;6.72;;;8.70;74.50;;;;;;4986392;28;20153;-78
2021/12/27 04:10:55;;;;;;;11.95;7.45;;;8.70;74.50;;;;;;5021322;28;20157;-78
2021/12/27 04:13:23;;;;;;;12.25;7.60;;;8.80;74.50;;;;;;5006009;28;20052;-78
2021/12/27 04:15:50;;;;;;;12.55;7.20;;;8.70;74.50;;;;;;5002472;28;20500;-78
2021/12/27 04:18:18;;;;;;;10.40;7.47;;;8.70;74.50;;;;;;5010727;28;20048;-77
2021/12/27 04:20:45;;;;;;;10.60;7.18;;;8.70;74.50;;;;;;4997908;28;20042;-78
2021/12/27 04:23:13;;;;;;;10.82;7.18;;;8.70;74.40;;;;;;5005281;28;20037;-78
2021/12/27 04:25:40;;;;;;;9.40;7.32;;;8.80;74.50;;;;;;5011388;28;20041;-78
2021/12/27 04:28:08;;;;;;;9.70;7.07;;;8.70;74.50;;;;;;4996352;28;20045;-78
2021/12/27 04:30:35;;;;;;;8.55;7.03;;;8.70;74.50;;;;;;4986363;28;20046;-77
2021/12/27 04:33:02;;;;;;;10.02;7.47;;;8.70;74.50;;;;;;4992525;28;20103;-78
2021/12/27 04:35:30;;;;;;;9.52;6.72;;;8.70;74.50;;;;;;4995056;28;20041;-78
2021/12/27 04:37:57;;;;;;;11.02;7.22;;;8.70;74.50;;;;;;5008945;28;20535;-77
2021/12/27 04:40:27;;;;;;;10.50;7.05;;;8.70;74.50;;;;;;4991119;28;20046;-78
2021/12/27 04:43:11;;;;;;;10.88;7.50;;;8.70;74.40;;;;;;5010855;28;20055;-78
2021/12/27 04:45:38;;;;;;;9.43;6.43;;;8.70;74.50;;;;;;4994122;28;20049;-78
2021/12/27 04:48:06;;;;;;;9.25;6.95;;;8.70;74.40;;;;;;4998549;28;20141;-78
2021/12/27 04:50:34;;;;;;;10.50;7.97;;;8.70;74.40;;;;;;4985064;28;20145;-78
2021/12/27 04:53:01;;;;;;;10.23;7.28;;;8.70;74.50;;;;;;4995985;28;20391;-78
2021/12/27 04:55:29;;;;;;;8.48;6.55;;;8.70;74.60;;;;;;4988130;28;20050;-78
2021/12/27 04:57:57;;;;;;;8.20;6.60;;;8.70;74.60;;;;;;4975937;28;20619;-78
2021/12/27 05:00:24;;;;;;;9.63;6.82;;;8.70;74.70;;;;;;5002577;28;20436;-78
2021/12/27 05:02:51;;;;;;;9.27;6.72;;;8.70;74.80;;;;;;4999665;28;20068;-78
2021/12/27 05:05:18;;;;;;;9.15;6.72;;;8.70;74.80;;;;;;4992881;28;20046;-77
2021/12/27 05:07:47;;;;;;;9.70;7.15;;;8.70;74.80;;;;;;5012300;28;20041;-78
2021/12/27 05:10:16;;;;;;;8.27;6.07;;;8.70;74.80;;;;;;4994033;28;20629;-77
2021/12/27 05:12:44;;;;;;;11.60;6.78;;;8.70;74.90;;;;;;5012027;28;20493;-77
2021/12/27 05:15:11;;;;;;;9.82;6.40;;;8.70;74.90;;;;;;4992271;28;20057;-78
2021/12/27 05:17:38;;;;;;;11.50;7.38;;;8.80;75.00;;;;;;5004935;28;20042;-78
2021/12/27 05:20:08;;;;;;;9.27;6.35;;;8.70;74.90;;;;;;4989793;28;20529;-78
2021/12/27 05:22:36;;;;;;;10.80;7.10;;;8.70;75.00;;;;;;4990078;28;20046;-78
2021/12/27 05:25:05;;;;;;;8.30;6.63;;;8.70;75.00;;;;;;5001816;28;20057;-78
2021/12/27 05:27:32;;;;;;;11.77;7.45;;;8.80;75.10;;;;;;4991732;28;20037;-78
2021/12/27 05:30:14;;;;;;;9.00;6.70;;;8.70;75.00;;;;;;5006385;28;20532;-77
2021/12/27 05:32:43;;;;;;;12.25;6.53;;;8.80;75.00;;;;;;4987096;28;20041;-77
2021/12/27 05:35:11;;;;;;;7.97;6.15;;;8.80;75.10;;;;;;4967180;28;20075;-77
2021/12/27 05:37:40;;;;;;;8.10;5.88;;;8.80;75.10;;;;;;4991945;28;20494;-77
2021/12/27 05:40:14;;;;;;;8.82;6.63;;;8.80;75.20;;;;;;4986670;28;20104;-77
2021/12/27 05:42:41;;;;;;;11.73;6.65;;;8.80;75.20;;;;;;4989234;28;20061;-77
2021/12/27 05:45:08;;;;;;;8.43;6.32;;;8.80;75.20;;;;;;5001507;28;20048;-77
2021/12/27 05:47:36;;;;;;;9.63;7.18;;;8.80;75.00;;;;;;4993451;28;20046;-77
2021/12/27 05:50:05;;;;;;;9.90;7.05;;;8.90;75.10;;;;;;5007219;28;20057;-77
2021/12/27 05:52:32;;;;;;;9.10;6.75;;;8.90;75.10;;;;;;5017744;28;20053;-77
2021/12/27 05:54:59;;;;;;;9.23;6.72;;;8.90;75.10;;;;;;5016381;28;20049;-76
2021/12/27 05:57:26;;;;;;;8.73;6.68;;;8.90;75.10;;;;;;5021842;28;20049;-76
2021/12/27 05:59:53;;;;;;;10.25;7.13;;;8.90;75.10;;;;;;4999243;28;20064;-76
2021/12/27 06:02:20;;;;;;;7.32;6.35;;;8.90;75.10;;;;;;4999353;28;20117;-76
2021/12/27 06:04:48;;;;;;;7.82;6.03;;;8.90;75.00;;;;;;5019911;28;20696;-76
2021/12/27 06:07:15;;;;;;;10.07;7.30;;;8.90;75.00;;;;;;5014744;28;20044;-76
2021/12/27 06:09:42;;;;;;;7.50;6.28;;;8.90;75.00;;;;;;4994168;28;20121;-76
2021/12/27 06:12:09;;;;;;;10.10;7.30;;;9.00;75.60;;;;;;5003647;28;20053;-77
2021/12/27 06:14:36;;;;;;;9.05;6.68;;;8.90;74.90;;;;;;4973173;28;20411;-76
2021/12/27 06:17:03;;;;;;;7.47;6.32;;;8.90;74.90;;;;;;4995540;28;20059;-74
2021/12/27 06:19:30;;;;;;;8.95;7.00;;;9.00;74.90;;;;;;5013760;28;20053;-74
2021/12/27 06:21:57;;;;;;;8.27;6.53;;;8.90;74.90;;;;;;5010875;28;20691;-74
2021/12/27 06:24:24;;;;;;;7.90;6.85;;;9.00;74.90;;;;;;5000780;28;20050;-75
2021/12/27 06:26:51;;;;;;;8.20;6.63;;;9.00;74.90;;;;;;4993787;28;20061;-74
2021/12/27 06:29:18;;;;;;;8.80;6.35;;;8.90;74.90;;;;;;4997118;28;20640;-74
2021/12/27 06:31:44;;;;;;;8.85;6.63;;;8.90;74.90;;;;;;5024374;28;20031;-74
2021/12/27 06:34:11;;;;;;;9.00;6.00;;;9.00;75.00;;;;;;4998502;28;20042;-74
2021/12/27 06:36:39;;;;;;;7.10;6.28;;;9.00;74.90;;;;;;5000184;28;20031;-76
2021/12/27 06:39:08;;;;;;;8.40;6.43;;;8.90;74.80;;;;;;4994844;28;20042;-75
2021/12/27 06:41:34;;;;;;;8.95;6.35;;;9.20;75.00;;;;;;4988566;28;20042;-76
2021/12/27 06:44:02;;;;;;;7.75;5.82;;;8.90;74.90;;;;;;4980294;28;20045;-76
2021/12/27 06:46:29;;;;;;;8.13;6.47;;;9.00;74.90;;;;;;4980226;28;20046;-74
2021/12/27 06:48:57;;;;;;;7.88;6.32;;;9.00;74.90;;;;;;4990762;28;20053;-75
2021/12/27 06:51:24;;;;;;;8.38;6.45;;;8.90;74.80;;;;;;4979810;28;20066;-74
2021/12/27 06:53:51;;;;;;;8.70;6.05;;;9.00;74.80;;;;;;5006638;28;20045;-74
2021/12/27 06:56:17;;;;;;;10.77;7.10;;;8.90;74.80;;;;;;4993932;28;20060;-76
2021/12/27 06:58:44;;;;;;;7.95;5.70;;;8.90;74.80;;;;;;4997073;28;20924;-73
2021/12/27 07:01:11;;;;;;;8.23;5.88;;;9.00;74.90;;;;;;4998661;28;20045;-75
2021/12/27 07:03:38;;;;;;;8.13;6.28;;;9.00;75.00;;;;;;4994747;28;20453;-73
2021/12/27 07:06:05;;;;;;;8.75;5.85;;;8.90;74.90;;;;;;5003816;28;20046;-76
2021/12/27 07:08:33;;;;;;;7.85;6.07;;;8.90;74.90;;;;;;5000384;28;20507;-74
2021/12/27 07:10:59;;;;;;;9.70;6.47;;;8.90;74.80;;;;;;4976415;28;20074;-76
2021/12/27 07:13:26;;;;;;;9.27;6.05;;;8.90;74.80;;;;;;4988573;28;20061;-75
2021/12/27 07:15:53;;;;;;;7.93;6.82;;;9.00;74.90;;;;;;5002871;28;20502;-74
2021/12/27 07:18:23;;;;;;;8.85;5.88;;;8.90;74.80;;;;;;5010807;28;20052;-76
2021/12/27 07:20:54;;;;;;;6.63;5.55;;;8.90;74.60;;;;;;4982383;28;20505;-76
2021/12/27 07:23:21;;;;;;;6.82;5.97;;;8.80;74.50;;;;;;4943342;28;20037;-73
2021/12/27 07:25:48;;;;;;;7.13;5.63;;;8.80;74.50;;;;;;4997411;28;20038;-76
2021/12/27 07:28:15;;;;;;;7.75;6.10;;;8.80;74.40;;;;;;4968433;28;20827;-76
2021/12/27 07:30:42;;;;;;;6.63;4.63;;;8.70;74.30;;;;;;4987634;28;20050;-76
2021/12/27 07:33:09;;;;;;;6.53;5.22;;;8.70;74.00;;;;;;4982517;28;20046;-74
2021/12/27 07:35:36;;;;;;;7.70;5.68;;;8.70;73.80;;;;;;4986254;28;20435;-76
2021/12/27 07:38:04;;;;;;;5.95;4.13;;;8.60;73.50;;;;;;4966973;28;20059;-75
2021/12/27 07:40:31;;;;;;;6.65;5.05;;;8.50;73.30;;;;;;4980540;28;20038;-73
2021/12/27 07:42:58;;;;;;;5.93;5.32;;;8.50;73.20;;;;;;4983018;28;20054;-76
2021/12/27 07:45:25;;;;;;;8.75;5.80;;;8.40;73.00;;;;;;4987247;28;20038;-75
2021/12/27 07:47:52;;;;;;;6.75;5.03;;;8.30;73.00;;;;;;4989798;28;20050;-77
2021/12/27 07:50:19;;;;;;;7.75;5.25;;;8.30;73.10;;;;;;4991406;28;20049;-76
2021/12/27 07:52:50;;;;;;;6.40;4.63;;;8.30;73.30;;;;;;4981715;28;20038;-76
2021/12/27 07:55:19;;;;;;;6.05;4.70;;;8.20;73.50;;;;;;4985839;28;20405;-75
2021/12/27 07:57:45;;;;;;;6.88;4.40;;;8.10;73.50;;;;;;4976132;28;20044;-76
2021/12/27 08:00:13;;;;;;;6.43;5.22;;;8.20;73.80;;;;;;4992184;28;20042;-75
2021/12/27 08:02:40;;;;;;;7.30;4.80;;;8.10;74.00;;;;;;4979340;28;20050;-76
2021/12/27 08:05:07;;;;;;;6.00;4.47;;;8.10;74.30;;;;;;4984046;28;20504;-73
2021/12/27 08:07:34;;;;;;;8.18;5.53;;;8.00;74.30;;;;;;4972993;28;20050;-75
2021/12/27 08:10:02;;;;;;;7.82;5.28;;;8.00;74.30;;;;;;4995971;28;20041;-74
2021/12/27 08:12:29;;;;;;;5.53;4.65;;;8.00;74.30;;;;;;5006117;28;20061;-75
2021/12/27 08:14:56;;;;;;;6.50;4.95;;;8.00;74.10;;;;;;4989566;28;20040;-74
2021/12/27 08:17:23;;;;;;;7.28;5.07;;;7.90;73.90;;;;;;4991711;28;20776;-75
2021/12/27 08:19:49;;;;;;;5.05;4.55;;;7.90;73.70;;;;;;5002950;28;20560;-74
2021/12/27 08:22:17;;;;;;;6.50;4.75;;;7.90;73.80;;;;;;4977538;28;20035;-76
2021/12/27 08:24:49;;;;;;;5.93;4.68;;;7.80;73.70;;;;;;4993772;23;20124;31
2021/12/27 08:27:17;;;;;;;7.43;5.30;;;7.80;73.70;;;;;;4973069;28;20053;-47
2021/12/27 08:29:44;;;;;;;8.77;4.97;;;7.60;73.80;;;;;;4985114;28;20560;-44
2021/12/27 08:32:10;;;;;;;7.47;5.65;;;7.80;74.10;;;;;;4994138;28;20092;-45
2021/12/27 08:34:37;;;;;;;7.20;6.07;;;7.70;74.30;;;;;;4987954;28;20042;-44
2021/12/27 08:37:04;;;;;;;10.52;6.97;;;7.80;74.80;;;;;;4979889;28;21722;-44
2021/12/27 08:39:34;;;;;;;10.02;7.38;;;7.80;75.20;;;;;;4977869;28;20633;-47
2021/12/27 08:42:07;;;;;;;10.45;7.15;;;7.80;75.50;;;;;;4986838;28;20409;-48
2021/12/27 08:44:35;;;;;;;9.82;7.43;;;7.80;75.80;;;;;;4984982;28;20097;-46
2021/12/27 08:47:02;;;;;;;7.78;6.28;;;7.90;76.10;;;;;;4979005;28;20084;-49
2021/12/27 08:49:29;;;;;;;9.15;6.65;;;8.00;76.40;;;;;;4984486;28;20047;-43
2021/12/27 08:51:56;;;;;;;11.15;6.55;;;8.00;76.60;;;;;;4973466;28;20070;-49
2021/12/27 08:54:25;;;;;;;8.85;6.25;;;8.10;76.80;;;;;;4980922;28;20401;-44
2021/12/27 08:56:52;;;;;;;9.43;7.38;;;8.20;76.90;;;;;;4966377;28;20038;-48
2021/12/27 08:59:18;;;;;;;10.13;7.20;;;8.40;77.00;;;;;;4978324;28;20473;-46
2021/12/27 09:01:45;;;;;;;10.55;6.72;;;8.40;77.00;;;;;;4986225;28;20042;-46
2021/12/27 09:04:12;;;;;;;7.65;6.47;;;8.40;76.90;;;;;;4975866;28;20038;-45
2021/12/27 09:06:39;;;;;;;8.18;6.35;;;8.50;76.90;;;;;;4987169;28;20061;-45
2021/12/27 09:09:06;;;;;;;10.73;6.80;;;8.60;76.90;;;;;;4978762;28;20453;-46
2021/12/27 09:11:33;;;;;;;7.97;6.18;;;8.70;77.00;;;;;;4987699;28;20733;-46
2021/12/27 09:14:00;;;;;;;8.30;6.05;;;8.70;76.90;;;;;;4978790;28;20062;-44
2021/12/27 09:16:43;;;;;;;11.18;6.35;;;8.80;76.70;;;;;;4985457;28;20080;-43
2021/12/27 09:19:11;;;;;;;8.20;6.15;;;8.90;76.50;;;;;;4977930;28;20130;-47
2021/12/27 09:21:38;;;;;;;9.75;6.45;;;9.00;76.30;;;;;;4978510;28;20638;-44
2021/12/27 09:24:05;;;;;;;9.93;6.25;;;9.00;76.20;;;;;;4976400;28;20108;-46
2021/12/27 09:26:33;;;;;;;7.47;6.10;;;9.00;76.20;;;;;;4981718;28;20042;-46
2021/12/27 09:29:00;;;;;;;8.45;6.03;;;9.10;76.40;;;;;;4979325;28;20100;-43
2021/12/27 09:31:27;;;;;;;9.75;6.65;;;9.10;76.40;;;;;;4981186;28;20128;-46
2021/12/27 09:33:53;;;;;;;9.13;7.15;;;9.20;76.50;;;;;;4977464;28;20046;-45
2021/12/27 09:36:20;;;;;;;10.55;6.63;;;9.20;76.40;;;;;;4979218;28;20062;-46
2021/12/27 09:38:48;;;;;;;7.97;6.53;;;9.30;76.50;;;;;;4978692;28;20505;-47
2021/12/27 09:41:19;;;;;;;10.30;6.78;;;9.40;76.50;;;;;;4989044;28;20037;-44
2021/12/27 09:43:46;;;;;;;8.40;6.07;;;9.40;76.50;;;;;;4978713;28;20059;-47
2021/12/27 09:46:15;;;;;;;9.52;6.82;;;9.50;76.40;;;;;;4984403;28;20046;-45
2021/12/27 09:48:42;;;;;;;9.23;6.45;;;9.50;76.30;;;;;;4978058;28;20072;-45
2021/12/27 09:51:10;;;;;;;8.45;6.00;;;9.60;76.20;;;;;;4997398;28;20092;-43
2021/12/27 09:53:38;;;;;;;9.30;5.97;;;9.60;76.20;;;;;;4985254;28;20450;-44
2021/12/27 09:56:09;;;;;;;8.55;6.50;;;9.70;76.40;;;;;;4985411;28;20093;-48
2021/12/27 09:58:37;;;;;;;8.50;6.05;;;9.70;76.40;;;;;;4978386;28;20038;-43
2021/12/27 10:01:06;;;;;;;6.82;5.65;;;9.80;76.40;;;;;;4984054;28;20587;-46
2021/12/27 10:03:48;;;;;;;7.97;5.85;;;9.90;76.40;;;;;;4981347;28;20046;-46
2021/12/27 10:06:16;;;;;;;8.15;6.22;;;9.90;76.40;;;;;;4987371;28;20030;-47
2021/12/27 10:08:47;;;;;;;10.27;7.13;;;10.00;76.10;;;;;;4980107;28;20588;-46
2021/12/27 10:11:19;;;;;;;8.73;6.40;;;10.10;76.10;;;;;;4991022;28;20092;-44
2021/12/27 10:14:11;;;;;;;8.48;6.13;;;10.10;75.90;;;;;;4983037;28;20057;-46
2021/12/27 10:16:44;;;;;;;8.73;5.95;;;10.20;75.90;;;;;;4981110;28;20058;-47
2021/12/27 10:19:15;;;;;;;8.25;6.95;;;10.20;75.50;;;;;;4980593;28;20406;-47
2021/12/27 10:21:49;;;;;;;7.20;5.70;;;10.20;75.50;;;;;;5001462;28;20038;-43
2021/12/27 10:24:29;;;;;;;7.68;5.93;;;10.30;75.60;;;;;;4998752;28;20524;-44
2021/12/27 10:26:59;;;;;;;9.73;5.60;;;10.20;75.60;;;;;;4986999;28;20101;-46
2021/12/27 10:29:27;;;;;;;9.20;6.95;;;10.30;75.60;;;;;;5020002;22;20502;-75
2021/12/27 10:32:16;;;;;;;9.20;8.23;;;10.30;75.60;;;;;;5027974;28;20060;-75
2021/12/27 10:34:51;;;;;;;8.63;5.85;;;10.40;75.90;;;;;;5017495;28;20061;-76
2021/12/27 10:37:31;;;;;;;9.80;7.35;;;10.40;75.60;;;;;;5016153;28;20033;-75
2021/12/27 10:40:09;;;;;;;11.15;9.55;;;10.50;75.60;;;;;;5010691;28;20115;-75
2021/12/27 10:42:43;;;;;;;9.00;8.05;;;10.50;75.60;;;;;;5031416;28;20041;-75
2021/12/27 10:45:11;;;;;;;9.00;5.93;;;10.50;75.50;;;;;;5027380;28;20046;-75
2021/12/27 10:47:54;;;;;;;10.10;7.35;;;10.50;75.40;;;;;;5001145;28;20285;-76
2021/12/27 10:50:26;;;;;;;;;;;10.50;75.50;;;;;;5024423;28;20512;-75
2021/12/27 10:52:59;;;;;;;12.52;8.85;;;10.50;75.60;;;;;;5013261;28;20364;-75
2021/12/27 10:55:37;;;;;;;26.25;15.35;;;10.60;75.20;;;;;;5020967;28;20075;-76
2021/12/27 10:58:24;;;;;;;16.25;11.55;;;10.60;75.40;;;;;;5013109;28;20049;-75
2021/12/27 11:00:59;;;;;;;9.35;7.45;;;10.60;75.70;;;;;;5011189;28;20041;-76
2021/12/27 11:03:39;;;;;;;11.15;7.88;;;10.70;75.70;;;;;;5004054;28;20037;-75
2021/12/27 11:06:08;;;;;;;14.10;9.77;;;10.70;75.70;;;;;;5025581;28;20048;-76
2021/12/27 11:08:38;;;;;;;11.82;7.63;;;10.70;75.70;;;;;;5017202;28;20042;-75
2021/12/27 11:11:06;;;;;;;22.67;15.60;;;10.70;75.70;;;;;;5005295;28;20116;-76
2021/12/27 11:13:33;;;;;;;11.63;8.48;;;10.80;75.60;;;;;;5002041;28;20049;-76
2021/12/27 11:16:01;;;;;;;9.10;6.03;;;10.80;75.60;;;;;;5015868;28;20056;-76
2021/12/27 11:18:28;;;;;;;8.80;5.90;;;10.80;75.70;;;;;;4991162;28;20128;-76
2021/12/27 11:20:58;;;;;;;7.15;5.93;;;10.90;75.90;;;;;;5003394;28;20107;-76
2021/12/27 11:23:27;;;;;;;8.63;5.07;;;11.00;75.90;;;;;;5015562;28;20304;-76
2021/12/27 11:26:09;;;;;;;8.80;5.13;;;11.00;75.90;;;;;;5000556;28;20140;-76
2021/12/27 11:28:41;;;;;;;8.63;5.60;;;11.10;75.90;;;;;;5024450;28;20038;-76
2021/12/27 11:31:24;;;;;;;5.05;4.35;;;11.10;75.80;;;;;;4992913;28;20045;-76
2021/12/27 11:34:03;;;;;;;6.25;4.72;;;11.20;75.70;;;;;;5004749;28;20073;-76
2021/12/27 11:36:38;;;;;;;5.90;4.25;;;11.20;75.50;;;;;;5001203;28;20052;-76
2021/12/27 11:39:24;;;;;;;8.40;5.30;;;11.30;75.30;;;;;;5021227;28;20052;-76
2021/12/27 11:42:05;;;;;;;9.68;5.68;;;11.30;75.40;;;;;;5010337;28;20564;-76
2021/12/27 11:44:39;;;;;;;6.28;4.45;;;11.40;75.20;;;;;;5014961;28;20056;-76
2021/12/27 11:47:08;;;;;;;5.85;4.78;;;11.40;75.00;;;;;;5021030;28;20046;-76
2021/12/27 11:49:50;;;;;;;5.82;4.85;;;11.40;74.80;;;;;;4994222;28;20452;-76
2021/12/27 11:52:19;;;;;;;5.05;4.25;;;11.40;74.80;;;;;;5004317;28;20393;-76
2021/12/27 11:55:21;;;;;;;5.68;4.30;;;11.40;74.70;;;;;;4992473;28;20129;-76
2021/12/27 11:57:52;;;;;;;5.80;4.32;;;11.40;74.80;;;;;;5008357;28;20065;-76
2021/12/27 12:00:24;;;;;;;6.82;4.78;;;11.50;74.70;;;;;;4990397;28;20228;-76
2021/12/27 12:03:01;;;;;;;5.93;4.65;;;11.50;74.70;;;;;;5020436;28;20045;-76
2021/12/27 12:05:51;;;;;;;5.70;4.75;;;11.50;74.70;;;;;;4980495;28;20375;-76
2021/12/27 12:08:37;;;;;;;5.80;4.70;;;11.50;74.80;;;;;;5025144;28;20490;-76
2021/12/27 12:11:10;;;;;;;5.88;4.70;;;11.50;74.80;;;;;;4999303;28;20470;-76
2021/12/27 12:13:37;;;;;;;5.90;5.00;;;11.50;74.80;;;;;;5022229;28;20045;-76
2021/12/27 12:16:11;;;;;;;7.78;5.03;;;11.50;74.80;;;;;;5000576;28;20053;-76
2021/12/27 12:18:42;;;;;;;7.90;5.30;;;11.50;74.80;;;;;;5023688;28;20033;-76
2021/12/27 12:21:28;;;;;;;12.18;7.30;;;11.50;74.90;;;;;;5007254;28;20052;-76
2021/12/27 12:23:58;;;;;;;7.22;5.53;;;11.50;74.90;;;;;;4990656;28;20541;-76
2021/12/27 12:26:25;;;;;;;8.63;6.30;;;11.60;75.00;;;;;;5012023;28;20063;-76
2021/12/27 12:29:02;;;;;;;5.53;4.85;;;11.60;74.90;;;;;;5006035;28;20037;-76
2021/12/27 12:31:34;;;;;;;6.10;4.82;;;11.60;74.90;;;;;;4985719;28;20052;-76
2021/12/27 12:34:08;;;;;;;8.70;5.93;;;11.60;74.80;;;;;;5022724;28;20376;-76
2021/12/27 12:36:56;;;;;;;6.82;5.32;;;11.70;74.90;;;;;;4986237;28;20048;-76
2021/12/27 12:39:25;;;;;;;8.55;5.43;;;11.70;74.90;;;;;;4985700;28;20049;-76
2021/12/27 12:42:09;;;;;;;6.75;5.30;;;11.70;74.90;;;;;;5023177;28;20062;-76
2021/12/27 12:45:04;;;;;;;6.18;5.13;;;11.80;75.00;;;;;;4999518;28;20046;-76
2021/12/27 12:47:40;;;;;;;6.20;5.25;;;11.80;75.00;;;;;;4999315;28;20058;-76
2021/12/27 12:50:20;;;;;;;7.78;5.68;;;11.90;75.00;;;;;;4993563;28;20038;-76
2021/12/27 12:52:48;;;;;;;6.97;5.70;;;11.90;75.00;;;;;;5004774;28;20045;-76
2021/12/27 12:55:26;;;;;;;7.97;5.90;;;11.90;75.00;;;;;;5010948;28;20044;-76
2021/12/27 12:57:54;;;;;;;7.57;5.40;;;12.00;75.10;;;;;;5009200;28;20044;-76
2021/12/27 13:00:23;;;;;;;8.50;6.15;;;12.10;75.10;;;;;;5011189;28;20049;-76
2021/12/27 13:02:51;;;;;;;9.95;7.88;;;12.10;75.00;;;;;;5022598;28;20049;-76
2021/12/27 13:05:19;;;;;;;6.97;5.53;;;12.10;74.90;;;;;;4991061;28;20046;-76